Time;durP1;ratioP1;P1;durP2;ratioP2;P2;SDS_P1;SDS_P2;PMS_P1;PMS_P2;Temp;Humidity;BMP_temperature;BMP_pressure;BME280_temperature;BME280_humidity;BME280_pressure;Samples;Min_cycle;Max_cycle;Signal;HPM_P1;HPM_P2
2023/08/21 00:00:20;;;;;;;15.25;11.45;;;23.70;99.90;;;;;;6229397;22;20024;-84
2023/08/21 00:02:47;;;;;;;22.10;12.73;;;23.70;99.90;;;;;;6254512;22;20042;-85
2023/08/21 00:05:14;;;;;;;16.17;12.25;;;23.70;99.90;;;;;;6255339;22;20451;-84
2023/08/21 00:07:43;;;;;;;16.77;12.25;;;23.70;99.90;;;;;;6253886;22;20027;-85
2023/08/21 00:10:12;;;;;;;17.02;13.35;;;23.70;99.90;;;;;;6253452;22;20095;-84
2023/08/21 00:12:40;;;;;;;17.88;12.50;;;23.70;99.90;;;;;;6228276;22;20020;-84
2023/08/21 00:15:09;;;;;;;17.88;12.63;;;23.60;99.90;;;;;;6252858;22;20015;-84
2023/08/21 00:17:36;;;;;;;23.10;13.30;;;23.60;99.90;;;;;;6253630;22;20251;-84
2023/08/21 00:20:04;;;;;;;19.25;13.02;;;23.60;99.90;;;;;;6253251;22;20075;-86
2023/08/21 00:22:31;;;;;;;20.90;12.23;;;23.60;99.90;;;;;;6253815;22;20436;-85
2023/08/21 00:24:58;;;;;;;19.27;13.63;;;23.50;99.90;;;;;;6227790;22;20031;-85
2023/08/21 00:27:26;;;;;;;17.10;12.85;;;23.60;99.90;;;;;;6253321;22;20055;-84
2023/08/21 00:29:53;;;;;;;18.25;11.77;;;23.50;99.90;;;;;;6278555;22;20024;-84
2023/08/21 00:32:21;;;;;;;15.52;12.18;;;23.50;99.90;;;;;;6227126;22;20019;-84
2023/08/21 00:34:48;;;;;;;17.45;12.77;;;23.50;99.90;;;;;;6226677;22;20046;-85
2023/08/21 00:37:15;;;;;;;21.38;14.02;;;23.50;99.90;;;;;;6252108;22;20055;-85
2023/08/21 00:39:43;;;;;;;20.42;12.68;;;23.50;99.90;;;;;;6227258;22;20043;-85
2023/08/21 00:42:10;;;;;;;19.08;13.07;;;23.50;99.90;;;;;;6252907;22;20027;-85
2023/08/21 00:44:37;;;;;;;17.40;12.52;;;23.50;99.90;;;;;;6228841;22;20110;-85
2023/08/21 00:47:04;;;;;;;18.27;12.60;;;23.50;99.90;;;;;;6253064;22;20039;-85
2023/08/21 00:49:32;;;;;;;16.17;11.35;;;23.50;99.90;;;;;;6253465;22;20069;-85
2023/08/21 00:52:01;;;;;;;17.25;12.35;;;23.50;99.90;;;;;;6228829;22;20019;-85
2023/08/21 00:54:30;;;;;;;14.77;11.27;;;23.50;99.90;;;;;;6254715;22;20020;-85
2023/08/21 00:56:58;;;;;;;17.13;12.05;;;23.50;99.90;;;;;;6253361;22;20795;-85
2023/08/21 00:59:25;;;;;;;16.05;11.63;;;23.50;99.90;;;;;;6228698;22;20015;-85
2023/08/21 01:02:13;;;;;;;15.95;11.10;;;23.50;99.90;;;;;;6231129;22;20023;-84
2023/08/21 01:04:41;;;;;;;18.45;12.13;;;23.50;99.90;;;;;;6216374;22;20027;-85
2023/08/21 01:07:09;;;;;;;15.10;10.77;;;23.40;99.90;;;;;;6253873;22;20489;-85
2023/08/21 01:10:11;;;;;;;17.38;11.77;;;23.40;99.90;;;;;;6253470;22;20049;-85
2023/08/21 01:13:06;;;;;;;15.00;10.53;;;23.40;99.90;;;;;;6222646;22;20035;-84
2023/08/21 01:15:33;;;;;;;17.13;11.70;;;23.40;99.90;;;;;;6228574;22;20043;-85
2023/08/21 01:18:02;;;;;;;14.85;11.45;;;23.40;99.90;;;;;;6228545;22;20435;-85
2023/08/21 01:20:29;;;;;;;15.38;11.68;;;23.40;99.90;;;;;;6254566;22;20028;-84
2023/08/21 01:22:56;;;;;;;15.02;10.70;;;23.40;99.90;;;;;;6228243;22;20054;-84
2023/08/21 01:25:24;;;;;;;15.25;11.30;;;23.40;99.90;;;;;;6226709;22;20047;-85
2023/08/21 01:27:51;;;;;;;17.75;11.68;;;23.40;99.90;;;;;;6252761;22;20016;-85
2023/08/21 01:30:18;;;;;;;13.82;10.75;;;23.40;99.90;;;;;;6253543;22;20032;-85
2023/08/21 01:33:00;;;;;;;15.88;11.07;;;23.30;99.90;;;;;;6252897;22;20087;-85
2023/08/21 01:35:29;;;;;;;13.43;10.20;;;23.30;99.90;;;;;;6252351;22;20019;-85
2023/08/21 01:37:57;;;;;;;14.60;10.80;;;23.30;99.90;;;;;;6252951;22;20031;-85
2023/08/21 01:40:26;;;;;;;12.82;10.25;;;23.30;99.90;;;;;;6252112;22;20019;-85
2023/08/21 01:42:54;;;;;;;13.25;10.57;;;23.30;99.90;;;;;;6252710;22;20062;-85
2023/08/21 01:45:22;;;;;;;14.10;10.20;;;23.30;99.90;;;;;;6251957;22;20381;-85
2023/08/21 01:47:50;;;;;;;15.85;10.18;;;23.30;99.90;;;;;;6252961;22;20034;-85
2023/08/21 01:50:18;;;;;;;14.48;10.00;;;23.20;99.90;;;;;;6253587;22;20027;-85
2023/08/21 01:52:45;;;;;;;11.32;9.00;;;23.20;99.90;;;;;;6252756;22;20019;-85
2023/08/21 01:55:12;;;;;;;13.40;9.70;;;23.20;99.90;;;;;;6252804;22;20019;-85
2023/08/21 01:57:39;;;;;;;14.45;10.38;;;23.20;99.90;;;;;;6252598;22;20072;-86
2023/08/21 02:00:08;;;;;;;12.57;9.65;;;23.20;99.90;;;;;;6250577;22;20020;-85
2023/08/21 02:02:54;;;;;;;13.68;9.70;;;23.20;99.90;;;;;;6256782;22;20121;-86
2023/08/21 02:05:21;;;;;;;13.18;9.70;;;23.20;99.90;;;;;;6251989;22;20649;-85
2023/08/21 02:07:48;;;;;;;14.32;9.85;;;23.20;99.90;;;;;;6251572;22;20769;-85
2023/08/21 02:10:16;;;;;;;13.57;9.90;;;23.10;99.90;;;;;;6250777;22;20027;-86
2023/08/21 02:12:43;;;;;;;13.20;10.25;;;23.10;99.90;;;;;;6250723;22;20026;-86
2023/08/21 02:15:11;;;;;;;13.95;9.55;;;23.10;99.90;;;;;;6249846;22;20039;-85
2023/08/21 02:17:39;;;;;;;13.43;9.68;;;23.10;99.90;;;;;;6249619;22;20046;-85
2023/08/21 02:20:07;;;;;;;13.15;9.55;;;23.10;99.90;;;;;;6250573;22;20638;-85
2023/08/21 02:22:34;;;;;;;15.27;10.30;;;23.10;99.90;;;;;;6251656;22;20019;-85
2023/08/21 02:28:21;;;;;;;17.45;10.48;;;23.00;99.90;;;;;;6241431;22;20053;-85
2023/08/21 02:30:49;;;;;;;13.90;9.85;;;23.00;99.90;;;;;;6191462;23;20747;-85
2023/08/21 02:36:58;;;;;;;14.82;10.48;;;23.00;99.90;;;;;;6261367;22;20532;-85
2023/08/21 02:39:28;;;;;;;14.00;9.75;;;23.00;99.90;;;;;;6256162;22;20034;-85
2023/08/21 02:41:55;;;;;;;12.70;9.70;;;23.00;99.90;;;;;;6255211;22;20541;-85
2023/08/21 02:44:23;;;;;;;13.32;9.93;;;23.00;99.90;;;;;;6280691;22;20042;-85
2023/08/21 02:46:50;;;;;;;12.52;9.57;;;22.90;99.90;;;;;;6279830;22;20019;-85
2023/08/21 02:49:17;;;;;;;15.35;10.07;;;22.90;99.90;;;;;;6282262;22;20011;-87
2023/08/21 02:51:46;;;;;;;14.10;10.68;;;22.90;99.90;;;;;;6256334;22;20019;-85
2023/08/21 02:57:24;;;;;;;15.75;11.27;;;22.90;99.90;;;;;;6271597;22;20074;-85
2023/08/21 04:30:53;;;;;;;12.65;10.00;;;22.60;99.90;;;;;;6259319;22;20089;-85
2023/08/21 04:33:20;;;;;;;15.73;11.93;;;22.70;99.90;;;;;;6246773;22;20015;-85
2023/08/21 04:35:48;;;;;;;15.43;10.80;;;22.60;99.90;;;;;;6222053;22;20103;-85
2023/08/21 04:38:15;;;;;;;16.92;11.05;;;22.70;99.90;;;;;;6210131;23;20547;-85
2023/08/21 04:40:42;;;;;;;14.38;10.65;;;22.70;99.90;;;;;;6185277;23;20020;-85
2023/08/21 04:46:31;;;;;;;15.55;10.15;;;22.80;99.90;;;;;;6266533;22;20085;-83
2023/08/21 04:49:19;;;;;;;16.60;10.27;;;22.80;99.90;;;;;;6250842;22;20027;-85
2023/08/21 04:58:31;;;;;;;16.27;11.10;;;22.90;99.90;;;;;;6243449;22;20039;-84
2023/08/21 05:01:00;;;;;;;15.55;10.88;;;22.90;99.90;;;;;;6218621;23;20035;-84
2023/08/21 05:03:28;;;;;;;17.25;11.15;;;22.80;99.90;;;;;;6245498;23;20024;-85
2023/08/21 05:05:56;;;;;;;15.88;11.73;;;22.80;99.90;;;;;;6197107;23;20031;-85
2023/08/21 05:08:25;;;;;;;15.98;10.95;;;22.90;99.90;;;;;;6197309;23;20048;-84
2023/08/21 05:10:59;;;;;;;13.93;10.57;;;23.00;99.90;;;;;;6196021;23;20684;-84
2023/08/21 05:13:30;;;;;;;14.40;10.45;;;23.10;99.90;;;;;;6202147;23;20119;-85
2023/08/21 05:15:58;;;;;;;15.55;11.18;;;23.00;99.90;;;;;;6199273;23;20028;-84
2023/08/21 05:18:30;;;;;;;13.57;10.13;;;23.10;99.90;;;;;;6201214;23;20040;-84
2023/08/21 05:20:57;;;;;;;16.02;11.40;;;23.10;99.90;;;;;;6225795;23;20017;-85
2023/08/21 05:23:24;;;;;;;15.52;10.15;;;23.20;99.90;;;;;;6224765;23;20024;-85
2023/08/21 05:25:56;;;;;;;14.55;10.00;;;23.20;99.90;;;;;;6223692;23;20027;-86
2023/08/21 05:28:23;;;;;;;12.45;10.32;;;23.30;99.90;;;;;;6197454;23;20028;-86
2023/08/21 05:30:51;;;;;;;15.18;10.55;;;23.30;99.90;;;;;;6195829;23;20024;-85
2023/08/21 05:33:19;;;;;;;15.15;10.45;;;23.40;99.90;;;;;;6196615;23;20016;-84
2023/08/21 05:35:49;;;;;;;15.07;10.48;;;23.40;99.90;;;;;;6198212;23;20020;-85
2023/08/21 05:38:17;;;;;;;12.40;10.15;;;23.50;99.90;;;;;;6222878;23;20018;-84
2023/08/21 05:40:44;;;;;;;14.00;10.75;;;23.50;99.90;;;;;;6198662;23;20028;-85
2023/08/21 05:43:11;;;;;;;13.93;10.10;;;23.60;99.90;;;;;;6197010;23;20031;-85
2023/08/21 05:45:42;;;;;;;15.48;10.82;;;23.70;99.90;;;;;;6221369;23;20491;-85
2023/08/21 05:48:11;;;;;;;13.82;10.57;;;23.80;99.90;;;;;;6193106;23;20024;-84
2023/08/21 05:50:38;;;;;;;18.27;10.15;;;23.80;99.90;;;;;;6196825;23;20024;-84
2023/08/21 05:53:06;;;;;;;23.70;10.48;;;23.90;99.90;;;;;;6222011;23;20103;-85
2023/08/21 05:55:34;;;;;;;18.73;10.50;;;23.90;99.90;;;;;;6193835;23;20028;-84
2023/08/21 05:58:01;;;;;;;19.90;10.90;;;24.00;99.90;;;;;;6222345;23;20447;-84
2023/08/21 06:00:29;;;;;;;15.88;10.88;;;24.10;99.90;;;;;;6193239;23;20020;-84
2023/08/21 06:03:01;;;;;;;14.63;11.00;;;24.20;99.90;;;;;;6192424;23;20434;-83
2023/08/21 06:05:47;;;;;;;15.27;10.60;;;24.30;99.90;;;;;;6220827;23;20031;-84
2023/08/21 06:08:15;;;;;;;12.95;10.63;;;24.40;99.90;;;;;;6214551;23;20020;-82
2023/08/21 06:10:42;;;;;;;12.32;9.95;;;24.50;99.90;;;;;;6213168;23;20058;-84
2023/08/21 06:13:09;;;;;;;11.82;10.13;;;24.60;99.90;;;;;;6190841;23;20131;-83
2023/08/21 06:15:37;;;;;;;15.02;10.70;;;24.80;99.90;;;;;;6211830;23;20020;-83
2023/08/21 06:18:04;;;;;;;11.98;9.93;;;24.90;99.90;;;;;;6213656;23;20024;-84
2023/08/21 06:20:31;;;;;;;15.18;10.35;;;25.00;99.90;;;;;;6194533;23;20024;-83
2023/08/21 06:22:59;;;;;;;12.77;9.98;;;25.10;99.90;;;;;;6189958;23;20046;-84
2023/08/21 06:25:26;;;;;;;15.82;10.77;;;25.20;99.90;;;;;;6214236;23;20115;-84
2023/08/21 06:27:53;;;;;;;13.65;10.90;;;25.30;99.90;;;;;;6214742;23;20028;-84
2023/08/21 06:30:28;;;;;;;12.88;9.10;;;25.40;99.90;;;;;;6192415;23;20106;-83
2023/08/21 06:32:56;;;;;;;12.70;9.95;;;25.50;99.90;;;;;;6189603;23;20412;-84
2023/08/21 06:35:25;;;;;;;13.65;10.93;;;25.70;99.90;;;;;;6188563;23;20043;-84
2023/08/21 06:37:54;;;;;;;14.45;10.63;;;25.80;99.90;;;;;;6191414;23;20111;-84
2023/08/21 06:40:22;;;;;;;13.18;10.07;;;25.90;99.90;;;;;;6191613;23;20030;-84
2023/08/21 06:42:50;;;;;;;12.35;10.48;;;26.00;99.90;;;;;;6188666;23;20027;-84
2023/08/21 06:45:20;;;;;;;13.55;10.10;;;26.10;99.90;;;;;;6213448;23;20403;-84
2023/08/21 06:47:50;;;;;;;15.90;11.32;;;26.10;99.90;;;;;;6193312;23;20035;-84
2023/08/21 06:50:17;;;;;;;13.32;10.52;;;26.20;99.90;;;;;;6190914;23;20024;-83
2023/08/21 06:52:44;;;;;;;11.57;9.55;;;26.30;99.90;;;;;;6189034;23;20478;-84
2023/08/21 06:55:13;;;;;;;13.18;9.98;;;26.40;99.90;;;;;;6214569;23;20321;-84
2023/08/21 06:57:40;;;;;;;12.38;10.43;;;26.50;99.90;;;;;;6212673;23;20501;-82
2023/08/21 07:00:08;;;;;;;12.95;10.07;;;26.60;99.90;;;;;;6217561;22;20024;-82
2023/08/21 07:02:35;;;;;;;12.18;9.68;;;26.70;99.90;;;;;;6240873;22;20062;-83
2023/08/21 07:05:03;;;;;;;13.65;10.20;;;26.80;99.90;;;;;;6243721;22;20024;-82
2023/08/21 07:07:30;;;;;;;17.88;10.75;;;26.90;99.90;;;;;;6216125;22;20023;-82
2023/08/21 07:09:57;;;;;;;13.45;10.50;;;27.00;99.90;;;;;;6240733;22;20592;-81
2023/08/21 07:12:25;;;;;;;13.25;10.05;;;27.00;99.90;;;;;;6240869;22;20054;-82
2023/08/21 07:14:52;;;;;;;13.10;10.40;;;27.10;99.90;;;;;;6241846;22;20113;-82
2023/08/21 07:17:19;;;;;;;15.57;10.55;;;27.20;99.90;;;;;;6242116;22;20024;-82
2023/08/21 07:19:48;;;;;;;13.57;10.75;;;27.30;99.90;;;;;;6239883;22;20495;-82
2023/08/21 07:22:16;;;;;;;12.45;10.13;;;27.40;99.90;;;;;;6239390;22;20349;-82
2023/08/21 07:24:43;;;;;;;11.75;9.82;;;27.50;99.70;;;;;;6215952;22;20044;-83
2023/08/21 07:27:10;;;;;;;15.65;10.48;;;27.60;99.20;;;;;;6244213;22;20039;-83
2023/08/21 07:29:37;;;;;;;12.02;10.07;;;27.70;99.80;;;;;;6218787;22;20062;-83
2023/08/21 07:32:04;;;;;;;10.88;9.48;;;27.90;99.60;;;;;;6244026;22;20424;-83
2023/08/21 07:34:31;;;;;;;11.93;9.80;;;28.00;98.60;;;;;;6240985;22;20362;-83
2023/08/21 07:36:59;;;;;;;13.98;10.07;;;28.00;99.00;;;;;;6212776;22;20126;-83
2023/08/21 07:39:26;;;;;;;11.18;9.13;;;28.10;99.20;;;;;;6216625;22;20023;-82
2023/08/21 07:41:53;;;;;;;11.23;9.63;;;28.20;98.60;;;;;;6241840;22;20020;-83
2023/08/21 07:44:20;;;;;;;12.35;9.85;;;28.30;98.40;;;;;;6216118;22;20049;-83
2023/08/21 07:46:47;;;;;;;12.82;10.25;;;28.30;97.50;;;;;;6216127;22;20085;-84
2023/08/21 07:49:15;;;;;;;13.93;10.23;;;28.40;98.40;;;;;;6240923;22;20680;-82
2023/08/21 07:51:42;;;;;;;12.32;10.27;;;28.50;98.20;;;;;;6244434;22;20129;-83
2023/08/21 07:54:09;;;;;;;11.73;9.75;;;28.40;96.80;;;;;;6214790;22;20020;-83
2023/08/21 07:56:37;;;;;;;12.10;9.85;;;28.50;97.10;;;;;;6240401;22;20019;-83
2023/08/21 07:59:04;;;;;;;11.00;9.77;;;28.60;97.40;;;;;;6242731;22;20027;-84
2023/08/21 08:01:32;;;;;;;10.95;9.48;;;28.60;96.50;;;;;;6240910;22;20106;-83
2023/08/21 08:04:00;;;;;;;13.23;9.98;;;28.70;96.30;;;;;;6216340;22;20245;-84
2023/08/21 08:06:27;;;;;;;12.40;9.38;;;28.60;95.20;;;;;;6239295;22;20451;-83
2023/08/21 08:08:54;;;;;;;12.20;9.02;;;28.60;96.80;;;;;;6207599;22;20019;-83
2023/08/21 08:11:21;;;;;;;12.10;9.52;;;28.80;96.90;;;;;;6214284;22;20110;-84
2023/08/21 08:13:49;;;;;;;13.80;8.88;;;28.80;95.50;;;;;;6217071;22;20097;-84
2023/08/21 08:16:16;;;;;;;9.75;8.52;;;28.90;94.80;;;;;;6217397;22;20023;-83
2023/08/21 08:18:44;;;;;;;11.93;9.65;;;29.00;95.60;;;;;;6218949;22;20019;-81
2023/08/21 08:21:11;;;;;;;11.75;9.38;;;29.00;95.30;;;;;;6245004;22;20023;-83
2023/08/21 08:23:38;;;;;;;12.00;9.90;;;29.00;95.50;;;;;;6243462;22;20024;-84
2023/08/21 08:26:05;;;;;;;13.25;10.18;;;29.00;94.70;;;;;;6244115;22;20073;-84
2023/08/21 08:28:32;;;;;;;10.23;8.63;;;29.10;96.00;;;;;;6218259;22;20470;-83
2023/08/21 08:31:00;;;;;;;11.27;9.27;;;29.10;95.50;;;;;;6243902;22;20123;-84
2023/08/21 08:33:27;;;;;;;12.75;9.25;;;29.30;95.00;;;;;;6235252;22;20102;-85
2023/08/21 08:35:54;;;;;;;13.07;9.60;;;29.30;94.40;;;;;;6218043;22;20455;-82
2023/08/21 08:38:21;;;;;;;10.25;8.75;;;29.30;95.20;;;;;;6218366;22;20362;-83
2023/08/21 08:40:50;;;;;;;10.45;8.75;;;29.40;94.30;;;;;;6243621;22;20090;-83
2023/08/21 08:43:19;;;;;;;11.05;8.77;;;29.40;94.40;;;;;;6188056;22;20028;-83
2023/08/21 08:45:47;;;;;;;12.27;9.48;;;29.40;94.40;;;;;;6244030;22;20020;-83
2023/08/21 08:48:16;;;;;;;12.07;8.68;;;29.40;95.30;;;;;;6242404;22;20050;-84
2023/08/21 08:50:44;;;;;;;11.07;8.73;;;29.40;93.40;;;;;;6240702;22;20077;-83
2023/08/21 08:53:13;;;;;;;9.75;8.57;;;29.50;93.30;;;;;;6241715;22;20479;-84
2023/08/21 08:55:44;;;;;;;9.23;8.20;;;29.50;92.90;;;;;;6246862;22;20016;-82
2023/08/21 09:02:07;;;;;;;10.88;8.68;;;29.50;92.80;;;;;;6241301;22;20475;-83
2023/08/21 09:04:34;;;;;;;11.32;8.65;;;29.60;92.30;;;;;;6217219;22;20033;-81
2023/08/21 09:07:12;;;;;;;9.57;7.60;;;29.60;92.80;;;;;;6243560;22;20462;-82
2023/08/21 09:09:40;;;;;;;8.95;7.50;;;29.70;92.30;;;;;;6241916;22;20484;-83
2023/08/21 09:12:11;;;;;;;10.05;7.35;;;29.70;90.00;;;;;;6242887;22;20045;-83
2023/08/21 09:14:43;;;;;;;9.43;7.57;;;29.60;90.70;;;;;;6216880;22;20020;-81
2023/08/21 09:17:10;;;;;;;8.00;7.20;;;29.60;90.10;;;;;;6238223;22;20024;-81
2023/08/21 09:19:38;;;;;;;8.88;7.97;;;29.60;87.20;;;;;;6218166;22;20019;-80
2023/08/21 09:22:14;;;;;;;9.75;7.50;;;29.50;87.50;;;;;;6239454;22;20510;-81
2023/08/21 09:25:00;;;;;;;8.90;7.35;;;29.60;88.50;;;;;;6215529;22;20704;-81
2023/08/21 09:27:28;;;;;;;7.78;7.00;;;29.60;86.90;;;;;;6218161;22;20447;-82
2023/08/21 09:29:55;;;;;;;8.45;7.20;;;29.60;86.40;;;;;;6242747;22;20023;-81
2023/08/21 09:32:22;;;;;;;8.98;7.10;;;29.70;85.50;;;;;;6240682;22;20386;-81
2023/08/21 09:34:49;;;;;;;8.30;7.38;;;29.70;87.70;;;;;;6241390;22;20447;-80
2023/08/21 09:37:17;;;;;;;8.05;7.25;;;29.80;90.10;;;;;;6217743;22;20708;-82
2023/08/21 09:39:46;;;;;;;8.00;7.03;;;29.80;86.00;;;;;;6216002;22;20110;-82
2023/08/21 09:42:14;;;;;;;8.20;7.15;;;29.70;86.50;;;;;;6216051;22;20431;-81
2023/08/21 09:44:43;;;;;;;8.88;7.22;;;29.70;86.60;;;;;;6237856;22;20518;-81
2023/08/21 09:47:11;;;;;;;9.18;7.32;;;29.80;87.40;;;;;;6240025;22;20097;-80
2023/08/21 09:49:39;;;;;;;9.80;7.72;;;29.90;88.80;;;;;;6241848;22;20023;-81
2023/08/21 09:52:10;;;;;;;8.05;7.25;;;29.80;85.60;;;;;;6239884;22;20093;-81
2023/08/21 09:54:39;;;;;;;8.77;7.13;;;29.90;87.10;;;;;;6242286;22;20024;-82
2023/08/21 09:57:06;;;;;;;7.93;7.13;;;29.90;88.30;;;;;;6216543;22;20473;-80
2023/08/21 09:59:33;;;;;;;9.18;6.82;;;29.90;85.80;;;;;;6213648;22;20024;-82
2023/08/21 10:02:04;;;;;;;8.23;7.13;;;29.90;83.30;;;;;;6216641;22;20049;-82
2023/08/21 10:04:34;;;;;;;7.80;6.83;;;29.80;84.20;;;;;;6241474;22;20034;-83
2023/08/21 10:07:05;;;;;;;8.20;7.18;;;29.80;85.70;;;;;;6239660;22;20030;-82
2023/08/21 10:09:33;;;;;;;7.70;6.93;;;29.80;86.60;;;;;;6243778;22;20020;-82
2023/08/21 10:12:01;;;;;;;7.90;6.50;;;29.90;83.60;;;;;;6244701;22;20306;-80
2023/08/21 10:14:29;;;;;;;8.20;6.35;;;29.90;84.40;;;;;;6268038;22;20450;-82
2023/08/21 10:16:56;;;;;;;9.48;6.55;;;29.90;84.00;;;;;;6241370;22;20089;-81
2023/08/21 10:19:30;;;;;;;6.63;5.93;;;30.00;83.30;;;;;;6240373;22;20491;-82
2023/08/21 10:21:59;;;;;;;7.95;7.15;;;30.00;83.20;;;;;;6238148;22;20111;-82
2023/08/21 10:24:39;;;;;;;7.85;6.78;;;30.00;85.50;;;;;;6241194;22;20016;-82
2023/08/21 10:27:07;;;;;;;7.43;6.65;;;30.00;85.60;;;;;;6241029;22;20029;-82
2023/08/21 10:29:36;;;;;;;8.35;6.45;;;30.00;82.30;;;;;;6214671;22;20027;-82
2023/08/21 10:32:05;;;;;;;8.13;6.63;;;30.00;84.20;;;;;;6237075;22;20028;-82
2023/08/21 10:34:39;;;;;;;8.57;6.35;;;30.00;84.10;;;;;;6216066;22;20020;-82
2023/08/21 10:37:12;;;;;;;8.18;6.70;;;30.00;83.00;;;;;;6240850;22;20020;-83
2023/08/21 10:39:56;;;;;;;7.72;6.75;;;30.00;83.70;;;;;;6241650;22;20020;-81
2023/08/21 10:42:44;;;;;;;7.72;6.90;;;30.10;84.90;;;;;;6242598;22;20464;-82
2023/08/21 10:45:12;;;;;;;8.18;7.38;;;30.10;87.80;;;;;;6228453;22;20047;-82
2023/08/21 10:47:40;;;;;;;8.13;7.30;;;30.20;87.80;;;;;;6239628;22;20673;-82
2023/08/21 10:50:08;;;;;;;8.32;7.53;;;30.20;84.40;;;;;;6211712;22;20522;-83
2023/08/21 10:52:41;;;;;;;8.05;7.25;;;30.20;87.50;;;;;;6212701;22;20391;-82
2023/08/21 10:55:09;;;;;;;7.97;6.93;;;30.10;87.80;;;;;;6242357;22;20024;-82
2023/08/21 10:57:37;;;;;;;8.45;7.10;;;30.10;83.60;;;;;;6242248;22;20104;-81
2023/08/21 11:00:04;;;;;;;10.27;7.53;;;30.00;82.90;;;;;;6239822;22;20080;-82
2023/08/21 11:02:32;;;;;;;11.25;7.18;;;30.10;86.60;;;;;;6236795;22;20024;-82
2023/08/21 11:05:00;;;;;;;9.45;8.10;;;30.20;88.10;;;;;;6215803;22;20086;-80
2023/08/21 11:07:28;;;;;;;8.32;7.53;;;30.20;88.60;;;;;;6241854;22;20497;-81
2023/08/21 11:09:56;;;;;;;8.40;7.50;;;30.20;88.50;;;;;;6216586;22;20088;-81
2023/08/21 11:12:24;;;;;;;9.05;7.65;;;30.10;85.50;;;;;;6216900;22;20027;-80
2023/08/21 11:14:51;;;;;;;8.45;7.35;;;30.20;87.30;;;;;;6218819;22;20022;-81
2023/08/21 11:17:19;;;;;;;7.85;7.05;;;30.20;87.20;;;;;;6240780;22;20034;-81
2023/08/21 11:19:48;;;;;;;8.48;7.40;;;30.30;85.80;;;;;;6216205;22;20367;-81
2023/08/21 11:22:16;;;;;;;8.20;7.40;;;30.30;85.50;;;;;;6239622;22;20394;-81
2023/08/21 11:24:45;;;;;;;9.02;8.07;;;30.20;86.70;;;;;;6242920;22;20099;-81
2023/08/21 11:27:18;;;;;;;9.18;7.45;;;30.20;87.00;;;;;;6244603;22;20024;-79
2023/08/21 11:29:47;;;;;;;7.65;6.90;;;30.30;87.20;;;;;;6241184;22;20054;-81
2023/08/21 11:32:19;;;;;;;8.30;7.50;;;30.30;86.80;;;;;;6213868;22;20605;-80
2023/08/21 11:34:50;;;;;;;;;;;30.30;85.50;;;;;;6241897;22;20473;-81
2023/08/21 11:37:19;;;;;;;7.30;6.55;;;30.30;83.30;;;;;;6241855;22;20223;-81
2023/08/21 11:39:58;;;;;;;8.68;7.22;;;30.30;84.60;;;;;;6240109;22;20027;-81
2023/08/21 11:42:33;;;;;;;8.52;7.35;;;30.40;85.70;;;;;;6238772;22;20461;-80
2023/08/21 11:45:01;;;;;;;8.57;7.78;;;30.30;86.10;;;;;;6243198;22;20107;-81
2023/08/21 11:47:34;;;;;;;8.77;7.45;;;30.40;83.60;;;;;;6215925;22;20079;-80
2023/08/21 11:50:06;;;;;;;9.73;6.78;;;30.40;84.30;;;;;;6238202;22;20024;-82
2023/08/21 11:52:35;;;;;;;8.32;7.40;;;30.50;84.60;;;;;;6240970;22;20073;-81
2023/08/21 11:55:10;;;;;;;9.85;7.45;;;30.50;85.00;;;;;;6216723;22;20439;-82
2023/08/21 11:57:49;;;;;;;9.43;7.00;;;30.50;85.10;;;;;;6216595;22;20046;-81
2023/08/21 12:00:22;;;;;;;9.38;7.38;;;30.50;84.60;;;;;;6244530;22;20444;-80
2023/08/21 12:02:57;;;;;;;9.02;7.65;;;30.50;84.00;;;;;;6241184;22;20087;-80
2023/08/21 12:05:27;;;;;;;8.88;7.68;;;30.60;82.30;;;;;;6244097;22;20446;-81
2023/08/21 12:07:54;;;;;;;8.85;7.20;;;30.50;83.50;;;;;;6244255;22;20019;-82
2023/08/21 12:10:29;;;;;;;8.45;7.30;;;30.50;82.80;;;;;;6238460;22;20019;-81
2023/08/21 12:12:56;;;;;;;9.60;7.18;;;30.50;84.20;;;;;;6240465;22;20122;-81
2023/08/21 12:15:23;;;;;;;9.05;7.38;;;30.60;86.20;;;;;;6251663;22;20451;-81
2023/08/21 12:17:51;;;;;;;8.32;7.03;;;30.60;86.70;;;;;;6243130;22;20016;-82
2023/08/21 12:20:19;;;;;;;8.27;6.88;;;30.60;85.20;;;;;;6245417;22;20035;-81
2023/08/21 12:22:46;;;;;;;8.10;7.30;;;30.60;83.60;;;;;;6243482;22;20477;-81
2023/08/21 12:25:13;;;;;;;9.05;7.88;;;30.60;85.80;;;;;;6218012;22;20023;-81
2023/08/21 12:27:40;;;;;;;9.02;8.10;;;30.60;85.30;;;;;;6242361;22;20130;-81
2023/08/21 12:30:08;;;;;;;8.65;7.75;;;30.60;85.10;;;;;;6241326;22;20130;-82
2023/08/21 12:32:35;;;;;;;8.70;7.60;;;30.60;84.70;;;;;;6240413;22;20024;-81
2023/08/21 12:35:04;;;;;;;7.68;6.88;;;30.70;84.20;;;;;;6243183;22;20035;-82
2023/08/21 12:37:31;;;;;;;7.60;6.90;;;30.70;82.10;;;;;;6219412;22;20022;-82
2023/08/21 12:39:58;;;;;;;7.57;6.88;;;30.80;82.10;;;;;;6243114;22;20015;-82
2023/08/21 12:42:26;;;;;;;8.00;7.20;;;30.80;81.10;;;;;;6214506;22;20016;-81
2023/08/21 12:44:53;;;;;;;8.55;7.47;;;30.70;82.40;;;;;;6243369;22;20023;-82
2023/08/21 12:47:20;;;;;;;8.40;7.60;;;30.70;82.10;;;;;;6244545;22;20122;-82
2023/08/21 12:49:47;;;;;;;9.70;7.13;;;30.80;81.50;;;;;;6243941;22;20435;-82
2023/08/21 12:52:14;;;;;;;10.88;8.02;;;30.80;83.90;;;;;;6243304;22;20091;-82
2023/08/21 12:54:42;;;;;;;8.20;7.40;;;30.90;82.70;;;;;;6243924;22;20022;-82
2023/08/21 12:57:11;;;;;;;8.70;6.85;;;30.80;82.20;;;;;;6242715;22;20031;-82
2023/08/21 12:59:38;;;;;;;8.52;6.90;;;30.80;82.10;;;;;;6241162;22;20486;-82
2023/08/21 13:02:07;;;;;;;8.00;7.20;;;30.80;80.90;;;;;;6243324;22;20020;-82
2023/08/21 13:04:34;;;;;;;8.20;7.20;;;30.80;82.80;;;;;;6242600;22;20019;-81
2023/08/21 13:07:03;;;;;;;8.75;7.43;;;30.80;81.30;;;;;;6217103;22;20019;-82
2023/08/21 13:09:30;;;;;;;9.07;6.72;;;30.90;80.60;;;;;;6244273;22;20042;-81
2023/08/21 13:11:57;;;;;;;7.95;6.70;;;30.90;80.00;;;;;;6243628;22;20055;-82
2023/08/21 13:14:25;;;;;;;8.75;7.38;;;30.90;82.00;;;;;;6218983;22;20089;-81
2023/08/21 13:16:52;;;;;;;9.27;7.55;;;30.90;80.20;;;;;;6243707;22;20030;-80
2023/08/21 13:19:19;;;;;;;9.68;7.75;;;30.90;81.10;;;;;;6217998;22;20340;-82
2023/08/21 13:21:46;;;;;;;11.45;8.52;;;30.80;83.50;;;;;;6217668;22;20525;-80
2023/08/21 13:24:13;;;;;;;9.57;8.55;;;30.90;83.80;;;;;;6249012;22;20024;-81
2023/08/21 13:26:40;;;;;;;8.50;7.70;;;30.90;83.00;;;;;;6216535;22;20538;-81
2023/08/21 13:29:08;;;;;;;9.80;7.40;;;31.00;81.10;;;;;;6272734;22;20409;-81
2023/08/21 13:31:35;;;;;;;9.15;7.88;;;31.00;79.50;;;;;;6243405;22;20107;-80
2023/08/21 13:34:03;;;;;;;7.93;6.90;;;31.00;79.10;;;;;;6222805;22;20053;-82
2023/08/21 13:36:30;;;;;;;9.50;7.63;;;31.20;79.50;;;;;;6245544;22;20023;-81
2023/08/21 13:38:57;;;;;;;8.13;7.32;;;31.00;78.30;;;;;;6245500;22;20038;-80
2023/08/21 13:41:24;;;;;;;8.43;7.55;;;31.00;78.60;;;;;;6216479;22;20343;-81
2023/08/21 13:43:52;;;;;;;9.13;7.05;;;30.90;80.10;;;;;;6216945;22;20026;-81
2023/08/21 13:46:21;;;;;;;8.48;7.28;;;31.00;80.80;;;;;;6242733;22;20077;-81
2023/08/21 13:48:48;;;;;;;9.10;7.30;;;31.00;82.40;;;;;;6240881;22;20103;-81
2023/08/21 13:51:16;;;;;;;8.82;7.60;;;31.00;82.60;;;;;;6218428;22;20046;-81
2023/08/21 13:53:46;;;;;;;9.57;7.95;;;31.00;83.60;;;;;;6242727;22;20024;-81
2023/08/21 13:56:13;;;;;;;9.20;8.30;;;31.00;82.10;;;;;;6219152;22;20030;-81
2023/08/21 13:58:40;;;;;;;9.20;7.65;;;31.00;82.30;;;;;;6240318;22;20012;-81
2023/08/21 14:01:08;;;;;;;9.30;7.70;;;31.00;83.60;;;;;;6243999;22;20051;-81
2023/08/21 14:03:35;;;;;;;11.63;8.43;;;31.00;82.60;;;;;;6242209;22;20577;-82
2023/08/21 14:06:03;;;;;;;9.25;6.88;;;31.10;80.70;;;;;;6216124;22;20409;-81
2023/08/21 14:08:30;;;;;;;8.70;7.80;;;31.10;78.60;;;;;;6244979;22;20443;-81
2023/08/21 14:10:58;;;;;;;10.40;7.95;;;31.00;77.70;;;;;;6218919;22;20074;-81
2023/08/21 14:13:25;;;;;;;7.57;6.88;;;31.00;81.00;;;;;;6243481;22;20107;-81
2023/08/21 14:15:52;;;;;;;8.70;7.85;;;30.90;78.60;;;;;;6218981;22;20031;-81
2023/08/21 14:18:20;;;;;;;9.63;6.90;;;30.80;79.70;;;;;;6243504;22;20087;-81
2023/08/21 14:20:47;;;;;;;8.63;7.47;;;30.80;78.70;;;;;;6243673;22;20019;-81
2023/08/21 14:23:14;;;;;;;8.30;7.50;;;30.90;79.20;;;;;;6240630;22;20506;-81
2023/08/21 14:25:42;;;;;;;8.65;7.70;;;31.00;79.50;;;;;;6240067;22;20418;-81
2023/08/21 14:28:09;;;;;;;9.50;7.90;;;30.80;81.70;;;;;;6266703;22;20023;-81
2023/08/21 14:30:36;;;;;;;10.40;7.35;;;30.80;79.60;;;;;;6238853;22;20531;-81
2023/08/21 14:33:03;;;;;;;9.25;7.50;;;30.70;80.80;;;;;;6241225;22;20030;-81
2023/08/21 14:35:31;;;;;;;11.48;7.32;;;30.70;81.60;;;;;;6217125;22;20026;-81
2023/08/21 14:37:58;;;;;;;6.97;6.38;;;30.80;81.30;;;;;;6217849;22;20402;-79
2023/08/21 14:40:25;;;;;;;9.20;7.13;;;30.80;78.60;;;;;;6219887;22;20023;-81